sensor_id;sensor_type;location;lat;lon;timestamp;pressure;altitude;pressure_sealevel;temperature
13219;BMP180;6674;49.152;11.918;2022-10-16T00:02:01;96052.84;;;15.52
13219;BMP180;6674;49.152;11.918;2022-10-16T00:04:29;96047.88;;;15.50
13219;BMP180;6674;49.152;11.918;2022-10-16T00:06:57;96045.03;;;15.52
13219;BMP180;6674;49.152;11.918;2022-10-16T00:09:25;96047.16;;;15.54
13219;BMP180;6674;49.152;11.918;2022-10-16T00:11:54;96063.03;;;15.58
13219;BMP180;6674;49.152;11.918;2022-10-16T00:14:21;96037.81;;;15.58
13219;BMP180;6674;49.152;11.918;2022-10-16T00:16:50;96052.16;;;15.61
13219;BMP180;6674;49.152;11.918;2022-10-16T00:19:16;96038.34;;;15.60
13219;BMP180;6674;49.152;11.918;2022-10-16T00:21:56;96054.75;;;15.61
13219;BMP180;6674;49.152;11.918;2022-10-16T00:24:25;96057.91;;;15.63
13219;BMP180;6674;49.152;11.918;2022-10-16T00:26:53;96049.63;;;15.66
13219;BMP180;6674;49.152;11.918;2022-10-16T00:29:19;96042.84;;;15.65
13219;BMP180;6674;49.152;11.918;2022-10-16T00:31:46;96049.63;;;15.66
13219;BMP180;6674;49.152;11.918;2022-10-16T00:34:14;96058.44;;;15.65
13219;BMP180;6674;49.152;11.918;2022-10-16T00:36:41;96045.44;;;15.65
13219;BMP180;6674;49.152;11.918;2022-10-16T00:39:10;96043.31;;;15.62
13219;BMP180;6674;49.152;11.918;2022-10-16T00:41:48;96044.41;;;15.66
13219;BMP180;6674;49.152;11.918;2022-10-16T00:44:42;96038.16;;;15.67
13219;BMP180;6674;49.152;11.918;2022-10-16T00:47:11;96045.97;;;15.67
13219;BMP180;6674;49.152;11.918;2022-10-16T00:49:39;96042.34;;;15.68
13219;BMP180;6674;49.152;11.918;2022-10-16T00:52:13;96038.72;;;15.69
13219;BMP180;6674;49.152;11.918;2022-10-16T00:54:42;96037.38;;;15.66
13219;BMP180;6674;49.152;11.918;2022-10-16T00:57:09;96040.00;;;15.66
13219;BMP180;6674;49.152;11.918;2022-10-16T00:59:37;96047.56;;;15.68
13219;BMP180;6674;49.152;11.918;2022-10-16T01:02:15;96042.84;;;15.65
13219;BMP180;6674;49.152;11.918;2022-10-16T01:04:46;96040.72;;;15.62
13219;BMP180;6674;49.152;11.918;2022-10-16T01:07:45;96042.25;;;15.58
13219;BMP180;6674;49.152;11.918;2022-10-16T01:10:25;96055.78;;;15.60
13219;BMP180;6674;49.152;11.918;2022-10-16T01:12:58;96062.44;;;15.51
13219;BMP180;6674;49.152;11.918;2022-10-16T01:15:35;96058.28;;;15.50
13219;BMP180;6674;49.152;11.918;2022-10-16T01:18:08;96071.31;;;15.55
13219;BMP180;6674;49.152;11.918;2022-10-16T01:20:42;96072.03;;;15.51
13219;BMP180;6674;49.152;11.918;2022-10-16T01:23:27;96080.09;;;15.49
13219;BMP180;6674;49.152;11.918;2022-10-16T01:26:11;96086.56;;;15.47
13219;BMP180;6674;49.152;11.918;2022-10-16T01:28:47;96079.25;;;15.44
13219;BMP180;6674;49.152;11.918;2022-10-16T01:31:19;96075.06;;;15.43
13219;BMP180;6674;49.152;11.918;2022-10-16T01:34:08;96093.81;;;15.45
13219;BMP180;6674;49.152;11.918;2022-10-16T01:36:41;96088.06;;;15.43
13219;BMP180;6674;49.152;11.918;2022-10-16T01:39:10;96088.63;;;15.45
13219;BMP180;6674;49.152;11.918;2022-10-16T01:41:49;96080.25;;;15.43
13219;BMP180;6674;49.152;11.918;2022-10-16T01:44:31;96088.88;;;15.43
13219;BMP180;6674;49.152;11.918;2022-10-16T01:47:15;96085.22;;;15.44
13219;BMP180;6674;49.152;11.918;2022-10-16T01:49:44;96077.41;;;15.44
13219;BMP180;6674;49.152;11.918;2022-10-16T01:52:15;96085.47;;;15.43
13219;BMP180;6674;49.152;11.918;2022-10-16T01:54:47;96069.56;;;15.39
13219;BMP180;6674;49.152;11.918;2022-10-16T01:57:15;96073.22;;;15.38
13219;BMP180;6674;49.152;11.918;2022-10-16T01:59:47;96088.25;;;15.36
13219;BMP180;6674;49.152;11.918;2022-10-16T02:02:17;96093.72;;;15.35
13219;BMP180;6674;49.152;11.918;2022-10-16T02:04:54;96091.03;;;15.30
13219;BMP180;6674;49.152;11.918;2022-10-16T02:07:23;96090.41;;;15.23
13219;BMP180;6674;49.152;11.918;2022-10-16T02:09:56;96109.66;;;15.22
13219;BMP180;6674;49.152;11.918;2022-10-16T02:12:31;96112.41;;;15.15
13219;BMP180;6674;49.152;11.918;2022-10-16T02:15:00;96111.38;;;15.16
13219;BMP180;6674;49.152;11.918;2022-10-16T02:17:27;96096.16;;;15.08
13219;BMP180;6674;49.152;11.918;2022-10-16T02:19:56;96107.91;;;15.11
13219;BMP180;6674;49.152;11.918;2022-10-16T02:22:27;96115.47;;;15.12
13219;BMP180;6674;49.152;11.918;2022-10-16T02:24:57;96110.81;;;15.14
13219;BMP180;6674;49.152;11.918;2022-10-16T02:27:27;96111.50;;;15.10
13219;BMP180;6674;49.152;11.918;2022-10-16T02:30:07;96117.00;;;15.13
13219;BMP180;6674;49.152;11.918;2022-10-16T02:32:37;96104.03;;;15.13
13219;BMP180;6674;49.152;11.918;2022-10-16T02:35:06;96105.84;;;15.13
13219;BMP180;6674;49.152;11.918;2022-10-16T02:37:33;96117.81;;;15.14
13219;BMP180;6674;49.152;11.918;2022-10-16T02:40:01;96121.75;;;15.16
13219;BMP180;6674;49.152;11.918;2022-10-16T02:42:29;96123.25;;;15.12
13219;BMP180;6674;49.152;11.918;2022-10-16T02:44:57;96128.78;;;15.16
13219;BMP180;6674;49.152;11.918;2022-10-16T02:47:25;96124.81;;;15.13
13219;BMP180;6674;49.152;11.918;2022-10-16T02:49:54;96131.59;;;15.14
13219;BMP180;6674;49.152;11.918;2022-10-16T02:52:20;96125.31;;;15.10
13219;BMP180;6674;49.152;11.918;2022-10-16T02:54:48;96128.97;;;15.14
13219;BMP180;6674;49.152;11.918;2022-10-16T02:57:15;96128.44;;;15.12
13219;BMP180;6674;49.152;11.918;2022-10-16T02:59:42;96119.06;;;15.11
13219;BMP180;6674;49.152;11.918;2022-10-16T03:02:08;96122.72;;;15.10
13219;BMP180;6674;49.152;11.918;2022-10-16T03:04:37;96122.72;;;15.10
13219;BMP180;6674;49.152;11.918;2022-10-16T03:07:04;96130.00;;;15.13
13219;BMP180;6674;49.152;11.918;2022-10-16T03:09:31;96133.41;;;15.14
13219;BMP180;6674;49.152;11.918;2022-10-16T03:11:57;96130.00;;;15.13
13219;BMP180;6674;49.152;11.918;2022-10-16T03:14:24;96135.31;;;15.18
13219;BMP180;6674;49.152;11.918;2022-10-16T03:16:51;96130.66;;;15.20
13219;BMP180;6674;49.152;11.918;2022-10-16T03:19:17;96136.09;;;15.19
13219;BMP180;6674;49.152;11.918;2022-10-16T03:21:46;96128.53;;;15.17
13219;BMP180;6674;49.152;11.918;2022-10-16T03:24:13;96123.34;;;15.17
13219;BMP180;6674;49.152;11.918;2022-10-16T03:26:39;96117.13;;;15.18
13219;BMP180;6674;49.152;11.918;2022-10-16T03:29:06;96120.28;;;15.20
13219;BMP180;6674;49.152;11.918;2022-10-16T03:31:32;96126.50;;;15.19
13219;BMP180;6674;49.152;11.918;2022-10-16T03:33:59;96123.34;;;15.17
13219;BMP180;6674;49.152;11.918;2022-10-16T03:36:26;96126.97;;;15.16
13219;BMP180;6674;49.152;11.918;2022-10-16T03:38:54;96119.16;;;15.16
13219;BMP180;6674;49.152;11.918;2022-10-16T03:41:20;96120.50;;;15.19
13219;BMP180;6674;49.152;11.918;2022-10-16T03:43:47;96124.44;;;15.21
13219;BMP180;6674;49.152;11.918;2022-10-16T03:46:14;96118.47;;;15.21
13219;BMP180;6674;49.152;11.918;2022-10-16T03:48:40;96120.81;;;15.22
13219;BMP180;6674;49.152;11.918;2022-10-16T03:51:07;96123.41;;;15.22
13219;BMP180;6674;49.152;11.918;2022-10-16T03:53:34;96121.59;;;15.23
13219;BMP180;6674;49.152;11.918;2022-10-16T03:56:02;96123.97;;;15.24
13219;BMP180;6674;49.152;11.918;2022-10-16T03:58:28;96127.34;;;15.25
13219;BMP180;6674;49.152;11.918;2022-10-16T04:00:55;96126.56;;;15.24
13219;BMP180;6674;49.152;11.918;2022-10-16T04:03:22;96128.91;;;15.26
13219;BMP180;6674;49.152;11.918;2022-10-16T04:05:49;96138.78;;;15.24
13219;BMP180;6674;49.152;11.918;2022-10-16T04:08:16;96134.59;;;15.23
13219;BMP180;6674;49.152;11.918;2022-10-16T04:10:44;96127.78;;;15.17
13219;BMP180;6674;49.152;11.918;2022-10-16T04:13:14;96131.59;;;15.14
13219;BMP180;6674;49.152;11.918;2022-10-16T04:15:41;96134.19;;;15.14
13219;BMP180;6674;49.152;11.918;2022-10-16T04:18:08;96131.75;;;15.08
13219;BMP180;6674;49.152;11.918;2022-10-16T04:20:34;96129.84;;;15.04
13219;BMP180;6674;49.152;11.918;2022-10-16T04:23:02;96122.22;;;14.97
13219;BMP180;6674;49.152;11.918;2022-10-16T04:25:30;96131.00;;;14.91
13219;BMP180;6674;49.152;11.918;2022-10-16T04:27:56;96131.78;;;14.92
13219;BMP180;6674;49.152;11.918;2022-10-16T04:30:27;96139.03;;;14.90
13219;BMP180;6674;49.152;11.918;2022-10-16T04:32:53;96151.38;;;14.83
13219;BMP180;6674;49.152;11.918;2022-10-16T04:35:21;96154.22;;;14.81
13219;BMP180;6674;49.152;11.918;2022-10-16T04:37:48;96162.00;;;14.81
13219;BMP180;6674;49.152;11.918;2022-10-16T04:40:15;96162.72;;;14.77
13219;BMP180;6674;49.152;11.918;2022-10-16T04:42:42;96167.44;;;14.80
13219;BMP180;6674;49.152;11.918;2022-10-16T04:45:09;96162.94;;;14.75
13219;BMP180;6674;49.152;11.918;2022-10-16T04:47:37;96167.13;;;14.76
13219;BMP180;6674;49.152;11.918;2022-10-16T04:50:05;96167.34;;;14.75
13219;BMP180;6674;49.152;11.918;2022-10-16T04:52:32;96159.00;;;14.73
13219;BMP180;6674;49.152;11.918;2022-10-16T04:54:59;96165.78;;;14.74
13219;BMP180;6674;49.152;11.918;2022-10-16T04:57:28;96166.78;;;14.73
13219;BMP180;6674;49.152;11.918;2022-10-16T04:59:54;96176.38;;;14.72
13219;BMP180;6674;49.152;11.918;2022-10-16T05:02:22;96170.88;;;14.69
13219;BMP180;6674;49.152;11.918;2022-10-16T05:04:51;96175.53;;;14.67
13219;BMP180;6674;49.152;11.918;2022-10-16T05:07:18;96177.59;;;14.65
13219;BMP180;6674;49.152;11.918;2022-10-16T05:09:44;96170.41;;;14.56
13219;BMP180;6674;49.152;11.918;2022-10-16T05:12:11;96175.91;;;14.59
13219;BMP180;6674;49.152;11.918;2022-10-16T05:14:38;96180.56;;;14.57
13219;BMP180;6674;49.152;11.918;2022-10-16T05:17:06;96178.66;;;14.53
13219;BMP180;6674;49.152;11.918;2022-10-16T05:19:32;96187.22;;;14.53
13219;BMP180;6674;49.152;11.918;2022-10-16T05:22:01;96183.31;;;14.51
13219;BMP180;6674;49.152;11.918;2022-10-16T05:24:28;96187.22;;;14.53
13219;BMP180;6674;49.152;11.918;2022-10-16T05:26:55;96186.13;;;14.49
13219;BMP180;6674;49.152;11.918;2022-10-16T05:29:22;96181.47;;;14.51
13219;BMP180;6674;49.152;11.918;2022-10-16T05:31:50;96175.28;;;14.52
13219;BMP180;6674;49.152;11.918;2022-10-16T05:34:18;96171.66;;;14.53
13219;BMP180;6674;49.152;11.918;2022-10-16T05:36:45;96179.19;;;14.55
13219;BMP180;6674;49.152;11.918;2022-10-16T05:39:15;96168.03;;;14.54
13219;BMP180;6674;49.152;11.918;2022-10-16T05:41:42;96162.63;;;14.56
13219;BMP180;6674;49.152;11.918;2022-10-16T05:44:09;96147.81;;;14.56
13219;BMP180;6674;49.152;11.918;2022-10-16T05:46:36;96145.47;;;14.55
13219;BMP180;6674;49.152;11.918;2022-10-16T05:49:03;96157.66;;;14.54
13219;BMP180;6674;49.152;11.918;2022-10-16T05:51:30;96167.13;;;14.60
13219;BMP180;6674;49.152;11.918;2022-10-16T05:53:59;96164.09;;;14.52
13219;BMP180;6674;49.152;11.918;2022-10-16T05:56:27;96170.63;;;14.54
13219;BMP180;6674;49.152;11.918;2022-10-16T05:58:55;96173.69;;;14.51
13219;BMP180;6674;49.152;11.918;2022-10-16T06:01:21;96183.75;;;14.48
13219;BMP180;6674;49.152;11.918;2022-10-16T06:03:49;96182.91;;;14.42
13219;BMP180;6674;49.152;11.918;2022-10-16T06:06:18;96188.19;;;14.47
13219;BMP180;6674;49.152;11.918;2022-10-16T06:08:47;96187.38;;;14.47
13219;BMP180;6674;49.152;11.918;2022-10-16T06:11:17;96200.56;;;14.45
13219;BMP180;6674;49.152;11.918;2022-10-16T06:13:49;96206.34;;;14.47
13219;BMP180;6674;49.152;11.918;2022-10-16T06:16:15;96214.91;;;14.48
13219;BMP180;6674;49.152;11.918;2022-10-16T06:18:42;96214.38;;;14.46
13219;BMP180;6674;49.152;11.918;2022-10-16T06:21:10;96229.47;;;14.49
13219;BMP180;6674;49.152;11.918;2022-10-16T06:23:38;96230.81;;;14.51
13219;BMP180;6674;49.152;11.918;2022-10-16T06:26:06;96247.66;;;14.49
13219;BMP180;6674;49.152;11.918;2022-10-16T06:28:33;96238.81;;;14.50
13219;BMP180;6674;49.152;11.918;2022-10-16T06:31:13;96244.25;;;14.48
13219;BMP180;6674;49.152;11.918;2022-10-16T06:33:41;96242.09;;;14.45
13219;BMP180;6674;49.152;11.918;2022-10-16T06:36:09;96253.63;;;14.49
13219;BMP180;6674;49.152;11.918;2022-10-16T06:38:37;96254.63;;;14.48
13219;BMP180;6674;49.152;11.918;2022-10-16T06:41:05;96248.66;;;14.48
13219;BMP180;6674;49.152;11.918;2022-10-16T06:43:32;96265.56;;;14.50
13219;BMP180;6674;49.152;11.918;2022-10-16T06:46:01;96279.66;;;14.54
13219;BMP180;6674;49.152;11.918;2022-10-16T06:48:30;96278.66;;;14.55
13219;BMP180;6674;49.152;11.918;2022-10-16T06:50:58;96276.06;;;14.55
13219;BMP180;6674;49.152;11.918;2022-10-16T06:53:27;96280.13;;;14.51
13219;BMP180;6674;49.152;11.918;2022-10-16T06:55:54;96290.91;;;14.60
13219;BMP180;6674;49.152;11.918;2022-10-16T06:58:20;96293.97;;;14.57
13219;BMP180;6674;49.152;11.918;2022-10-16T07:00:47;96293.84;;;14.63
13219;BMP180;6674;49.152;11.918;2022-10-16T07:03:14;96296.66;;;14.62
13219;BMP180;6674;49.152;11.918;2022-10-16T07:05:42;96288.09;;;14.61
13219;BMP180;6674;49.152;11.918;2022-10-16T07:08:09;96301.16;;;14.66
13219;BMP180;6674;49.152;11.918;2022-10-16T07:10:36;96293.94;;;14.68
13219;BMP180;6674;49.152;11.918;2022-10-16T07:13:02;96301.25;;;14.71
13219;BMP180;6674;49.152;11.918;2022-10-16T07:15:29;96306.22;;;14.72
13219;BMP180;6674;49.152;11.918;2022-10-16T07:17:56;96316.69;;;14.77
13219;BMP180;6674;49.152;11.918;2022-10-16T07:20:22;96309.72;;;14.78
13219;BMP180;6674;49.152;11.918;2022-10-16T07:22:51;96310.19;;;14.75
13219;BMP180;6674;49.152;11.918;2022-10-16T07:25:18;96306.53;;;14.76
13219;BMP180;6674;49.152;11.918;2022-10-16T07:27:45;96304.84;;;14.81
13219;BMP180;6674;49.152;11.918;2022-10-16T07:30:13;96317.09;;;14.86
13219;BMP180;6674;49.152;11.918;2022-10-16T07:32:39;96311.91;;;14.86
13219;BMP180;6674;49.152;11.918;2022-10-16T07:35:07;96303.19;;;14.92
13219;BMP180;6674;49.152;11.918;2022-10-16T07:37:34;96312.66;;;14.98
13219;BMP180;6674;49.152;11.918;2022-10-16T07:40:03;96316.91;;;15.04
13219;BMP180;6674;49.152;11.918;2022-10-16T07:42:32;96314.97;;;15.10
13219;BMP180;6674;49.152;11.918;2022-10-16T07:45:00;96321.97;;;15.10
13219;BMP180;6674;49.152;11.918;2022-10-16T07:47:27;96320.72;;;15.12
13219;BMP180;6674;49.152;11.918;2022-10-16T07:49:54;96322.41;;;15.18
13219;BMP180;6674;49.152;11.918;2022-10-16T07:52:21;96320.06;;;15.17
13219;BMP180;6674;49.152;11.918;2022-10-16T07:54:48;96314.94;;;15.22
13219;BMP180;6674;49.152;11.918;2022-10-16T07:57:16;96320.69;;;15.24
13219;BMP180;6674;49.152;11.918;2022-10-16T07:59:44;96315.81;;;15.27
13219;BMP180;6674;49.152;11.918;2022-10-16T08:02:12;96325.72;;;15.30
13219;BMP180;6674;49.152;11.918;2022-10-16T08:04:38;96321.69;;;15.39
13219;BMP180;6674;49.152;11.918;2022-10-16T08:07:06;96329.66;;;15.49
13219;BMP180;6674;49.152;11.918;2022-10-16T08:09:33;96336.59;;;15.60
13219;BMP180;6674;49.152;11.918;2022-10-16T08:12:00;96335.66;;;15.66
13219;BMP180;6674;49.152;11.918;2022-10-16T08:14:28;96322.97;;;15.69
13219;BMP180;6674;49.152;11.918;2022-10-16T08:16:55;96330.91;;;15.79
13219;BMP180;6674;49.152;11.918;2022-10-16T08:19:22;96332.88;;;15.89
13219;BMP180;6674;49.152;11.918;2022-10-16T08:21:48;96334.50;;;15.95
13219;BMP180;6674;49.152;11.918;2022-10-16T08:24:15;96326.72;;;15.95
13219;BMP180;6674;49.152;11.918;2022-10-16T08:26:41;96330.44;;;15.98
13219;BMP180;6674;49.152;11.918;2022-10-16T08:29:08;96329.22;;;16.06
13219;BMP180;6674;49.152;11.918;2022-10-16T08:31:36;96343.25;;;16.05
13219;BMP180;6674;49.152;11.918;2022-10-16T08:34:03;96332.63;;;16.06
13219;BMP180;6674;49.152;11.918;2022-10-16T08:36:36;96312.41;;;16.13
13219;BMP180;6674;49.152;11.918;2022-10-16T08:39:03;96313.50;;;16.17
13219;BMP180;6674;49.152;11.918;2022-10-16T08:41:57;96307.91;;;16.25
13219;BMP180;6674;49.152;11.918;2022-10-16T08:47:44;96308.22;;;16.50
13219;BMP180;6674;49.152;11.918;2022-10-16T08:50:14;96292.75;;;16.65
13219;BMP180;6674;49.152;11.918;2022-10-16T08:52:44;96294.47;;;16.81
13219;BMP180;6674;49.152;11.918;2022-10-16T08:55:28;96289.06;;;16.87
13219;BMP180;6674;49.152;11.918;2022-10-16T08:57:55;96297.19;;;16.90
13219;BMP180;6674;49.152;11.918;2022-10-16T09:00:22;96299.25;;;16.88
13219;BMP180;6674;49.152;11.918;2022-10-16T09:02:53;96309.66;;;16.88
13219;BMP180;6674;49.152;11.918;2022-10-16T09:05:30;96304.75;;;16.92
13219;BMP180;6674;49.152;11.918;2022-10-16T09:08:09;96308.94;;;16.93
13219;BMP180;6674;49.152;11.918;2022-10-16T09:10:48;96310.13;;;17.07
13219;BMP180;6674;49.152;11.918;2022-10-16T09:13:22;96313.06;;;17.15
13219;BMP180;6674;49.152;11.918;2022-10-16T09:15:58;96311.66;;;17.29
13219;BMP180;6674;49.152;11.918;2022-10-16T09:18:34;96316.66;;;17.35
13219;BMP180;6674;49.152;11.918;2022-10-16T09:21:08;96313.38;;;17.50
13219;BMP180;6674;49.152;11.918;2022-10-16T09:23:37;96307.16;;;17.51
13219;BMP180;6674;49.152;11.918;2022-10-16T09:26:09;96310.34;;;17.63
13219;BMP180;6674;49.152;11.918;2022-10-16T09:28:36;96311.97;;;17.69
13219;BMP180;6674;49.152;11.918;2022-10-16T09:31:02;96303.69;;;17.76
13219;BMP180;6674;49.152;11.918;2022-10-16T09:33:39;96324.16;;;17.94
13219;BMP180;6674;49.152;11.918;2022-10-16T09:36:09;96315.84;;;18.02
13219;BMP180;6674;49.152;11.918;2022-10-16T09:38:36;96319.59;;;18.11
13219;BMP180;6674;49.152;11.918;2022-10-16T09:41:13;96317.78;;;18.16
13219;BMP180;6674;49.152;11.918;2022-10-16T09:43:47;96327.78;;;18.29
13219;BMP180;6674;49.152;11.918;2022-10-16T09:46:25;96327.00;;;18.29
13219;BMP180;6674;49.152;11.918;2022-10-16T09:48:55;96309.41;;;18.15
13219;BMP180;6674;49.152;11.918;2022-10-16T09:51:26;96324.59;;;18.22
13219;BMP180;6674;49.152;11.918;2022-10-16T09:53:58;96327.53;;;18.31
13219;BMP180;6674;49.152;11.918;2022-10-16T09:56:27;96323.91;;;18.37
13219;BMP180;6674;49.152;11.918;2022-10-16T09:58:56;96327.06;;;18.49
13219;BMP180;6674;49.152;11.918;2022-10-16T10:01:28;96332.09;;;18.65
13219;BMP180;6674;49.152;11.918;2022-10-16T10:03:58;96325.41;;;18.94
13219;BMP180;6674;49.152;11.918;2022-10-16T10:06:30;96317.63;;;19.03
13219;BMP180;6674;49.152;11.918;2022-10-16T10:08:59;96316.34;;;19.21
13219;BMP180;6674;49.152;11.918;2022-10-16T10:11:39;96319.50;;;19.38
13219;BMP180;6674;49.152;11.918;2022-10-16T10:14:18;96316.88;;;19.43
13219;BMP180;6674;49.152;11.918;2022-10-16T10:16:46;96320.78;;;19.30
13219;BMP180;6674;49.152;11.918;2022-10-16T10:19:16;96325.75;;;19.37
13219;BMP180;6674;49.152;11.918;2022-10-16T10:21:43;96322.63;;;19.40
13219;BMP180;6674;49.152;11.918;2022-10-16T10:24:11;96318.97;;;19.70
13219;BMP180;6674;49.152;11.918;2022-10-16T10:26:38;96323.19;;;19.86
13219;BMP180;6674;49.152;11.918;2022-10-16T10:29:11;96321.06;;;19.93
13219;BMP180;6674;49.152;11.918;2022-10-16T10:31:45;96316.31;;;20.05
13219;BMP180;6674;49.152;11.918;2022-10-16T10:34:26;96309.47;;;20.29
13219;BMP180;6674;49.152;11.918;2022-10-16T10:37:00;96315.66;;;20.52
13219;BMP180;6674;49.152;11.918;2022-10-16T10:39:33;96312.00;;;20.48
13219;BMP180;6674;49.152;11.918;2022-10-16T10:42:12;96311.88;;;20.83
13219;BMP180;6674;49.152;11.918;2022-10-16T10:44:54;96309.03;;;21.22
13219;BMP180;6674;49.152;11.918;2022-10-16T10:47:29;96305.44;;;21.09
13219;BMP180;6674;49.152;11.918;2022-10-16T10:50:07;96308.63;;;21.01
13219;BMP180;6674;49.152;11.918;2022-10-16T10:52:42;96305.31;;;20.85
13219;BMP180;6674;49.152;11.918;2022-10-16T10:55:15;96301.13;;;20.79
13219;BMP180;6674;49.152;11.918;2022-10-16T10:57:56;96316.66;;;20.71
13219;BMP180;6674;49.152;11.918;2022-10-16T11:00:31;96318.25;;;20.67
13219;BMP180;6674;49.152;11.918;2022-10-16T11:03:11;96304.06;;;20.63
13219;BMP180;6674;49.152;11.918;2022-10-16T11:05:44;96301.44;;;20.63
13219;BMP180;6674;49.152;11.918;2022-10-16T11:08:16;96304.63;;;20.55
13219;BMP180;6674;49.152;11.918;2022-10-16T11:10:51;96300.75;;;20.43
13219;BMP180;6674;49.152;11.918;2022-10-16T11:13:26;96302.34;;;20.39
13219;BMP180;6674;49.152;11.918;2022-10-16T11:15:58;96302.09;;;20.35
13219;BMP180;6674;49.152;11.918;2022-10-16T11:18:32;96296.63;;;20.27
13219;BMP180;6674;49.152;11.918;2022-10-16T11:21:04;96302.63;;;20.28
13219;BMP180;6674;49.152;11.918;2022-10-16T11:23:38;96298.72;;;20.25
13219;BMP180;6674;49.152;11.918;2022-10-16T11:26:13;96302.16;;;20.21
13219;BMP180;6674;49.152;11.918;2022-10-16T11:28:45;96310.50;;;20.23
13219;BMP180;6674;49.152;11.918;2022-10-16T11:31:17;96308.44;;;20.25
13219;BMP180;6674;49.152;11.918;2022-10-16T11:33:48;96309.22;;;20.25
13219;BMP180;6674;49.152;11.918;2022-10-16T11:36:22;96308.41;;;20.34
13219;BMP180;6674;49.152;11.918;2022-10-16T11:38:53;96299.38;;;20.55
13219;BMP180;6674;49.152;11.918;2022-10-16T11:41:26;96305.69;;;20.59
13219;BMP180;6674;49.152;11.918;2022-10-16T11:44:04;96308.78;;;20.71
13219;BMP180;6674;49.152;11.918;2022-10-16T11:46:35;96302.97;;;20.79
13219;BMP180;6674;49.152;11.918;2022-10-16T11:49:10;96297.66;;;20.94
13219;BMP180;6674;49.152;11.918;2022-10-16T11:51:46;96299.72;;;21.02
13219;BMP180;6674;49.152;11.918;2022-10-16T11:54:20;96294.66;;;21.10
13219;BMP180;6674;49.152;11.918;2022-10-16T11:56:49;96299.03;;;21.24
13219;BMP180;6674;49.152;11.918;2022-10-16T11:59:22;96287.41;;;21.35
13219;BMP180;6674;49.152;11.918;2022-10-16T12:02:02;96279.31;;;21.65
13219;BMP180;6674;49.152;11.918;2022-10-16T12:04:41;96293.69;;;22.01
13219;BMP180;6674;49.152;11.918;2022-10-16T12:07:14;96286.84;;;22.00
13219;BMP180;6674;49.152;11.918;2022-10-16T12:09:44;96287.44;;;21.97
13219;BMP180;6674;49.152;11.918;2022-10-16T12:12:24;96287.59;;;21.77
13219;BMP180;6674;49.152;11.918;2022-10-16T12:15:00;96282.03;;;21.83
13219;BMP180;6674;49.152;11.918;2022-10-16T12:17:34;96290.81;;;21.69
13219;BMP180;6674;49.152;11.918;2022-10-16T12:20:19;96289.63;;;21.57
13219;BMP180;6674;49.152;11.918;2022-10-16T12:22:49;96285.16;;;21.57
13219;BMP180;6674;49.152;11.918;2022-10-16T12:25:22;96280.84;;;21.71
13219;BMP180;6674;49.152;11.918;2022-10-16T12:27:58;96288.94;;;22.03
13219;BMP180;6674;49.152;11.918;2022-10-16T12:30:27;96286.19;;;22.12
13219;BMP180;6674;49.152;11.918;2022-10-16T12:32:55;96281.31;;;22.29
13219;BMP180;6674;49.152;11.918;2022-10-16T12:35:24;96291.25;;;22.32
13219;BMP180;6674;49.152;11.918;2022-10-16T12:37:53;96292.22;;;22.41
13219;BMP180;6674;49.152;11.918;2022-10-16T12:40:27;96296.56;;;22.51
13219;BMP180;6674;49.152;11.918;2022-10-16T12:43:11;96291.59;;;22.49
13219;BMP180;6674;49.152;11.918;2022-10-16T12:45:38;96293.94;;;22.51
13219;BMP180;6674;49.152;11.918;2022-10-16T12:48:19;96292.06;;;22.33
13219;BMP180;6674;49.152;11.918;2022-10-16T12:50:46;96296.38;;;22.47
13219;BMP180;6674;49.152;11.918;2022-10-16T12:53:19;96297.91;;;22.48
13219;BMP180;6674;49.152;11.918;2022-10-16T12:55:54;96297.16;;;22.66
13219;BMP180;6674;49.152;11.918;2022-10-16T12:58:43;96296.59;;;22.69
13219;BMP180;6674;49.152;11.918;2022-10-16T13:01:23;96300.22;;;22.73
13219;BMP180;6674;49.152;11.918;2022-10-16T13:04:04;96297.22;;;22.61
13219;BMP180;6674;49.152;11.918;2022-10-16T13:06:40;96308.03;;;22.59
13219;BMP180;6674;49.152;11.918;2022-10-16T13:09:23;96303.03;;;22.58
13219;BMP180;6674;49.152;11.918;2022-10-16T13:12:03;96296.91;;;22.44
13219;BMP180;6674;49.152;11.918;2022-10-16T13:14:54;96303.06;;;22.35
13219;BMP180;6674;49.152;11.918;2022-10-16T13:17:31;96308.09;;;22.54
13219;BMP180;6674;49.152;11.918;2022-10-16T13:20:09;96312.16;;;22.65
13219;BMP180;6674;49.152;11.918;2022-10-16T13:22:43;96311.41;;;22.65
13219;BMP180;6674;49.152;11.918;2022-10-16T13:25:22;96317.69;;;22.64
13219;BMP180;6674;49.152;11.918;2022-10-16T13:27:55;96323.41;;;22.71
13219;BMP180;6674;49.152;11.918;2022-10-16T13:30:24;96317.66;;;22.69
13219;BMP180;6674;49.152;11.918;2022-10-16T13:32:57;96316.47;;;22.80
13219;BMP180;6674;49.152;11.918;2022-10-16T13:35:28;96320.22;;;22.74
13219;BMP180;6674;49.152;11.918;2022-10-16T13:38:08;96328.16;;;22.69
13219;BMP180;6674;49.152;11.918;2022-10-16T13:40:48;96323.47;;;22.66
13219;BMP180;6674;49.152;11.918;2022-10-16T13:43:16;96325.94;;;22.57
13219;BMP180;6674;49.152;11.918;2022-10-16T13:45:53;96327.81;;;22.75
13219;BMP180;6674;49.152;11.918;2022-10-16T13:48:20;96327.66;;;22.67
13219;BMP180;6674;49.152;11.918;2022-10-16T13:50:58;96326.97;;;22.80
13219;BMP180;6674;49.152;11.918;2022-10-16T13:53:25;96331.97;;;22.81
13219;BMP180;6674;49.152;11.918;2022-10-16T13:55:53;96325.00;;;22.90
13219;BMP180;6674;49.152;11.918;2022-10-16T13:58:20;96333.63;;;22.96
13219;BMP180;6674;49.152;11.918;2022-10-16T14:00:57;96336.22;;;23.00
13219;BMP180;6674;49.152;11.918;2022-10-16T14:03:26;96322.75;;;23.02
13219;BMP180;6674;49.152;11.918;2022-10-16T14:05:55;96323.00;;;23.05
13219;BMP180;6674;49.152;11.918;2022-10-16T14:08:25;96327.09;;;23.11
13219;BMP180;6674;49.152;11.918;2022-10-16T14:10:55;96333.94;;;23.12
13219;BMP180;6674;49.152;11.918;2022-10-16T14:13:31;96334.44;;;23.14
13219;BMP180;6674;49.152;11.918;2022-10-16T14:16:04;96336.78;;;23.34
13219;BMP180;6674;49.152;11.918;2022-10-16T14:18:32;96340.50;;;23.33
13219;BMP180;6674;49.152;11.918;2022-10-16T14:21:04;96330.09;;;23.23
13219;BMP180;6674;49.152;11.918;2022-10-16T14:23:33;96337.41;;;23.26
13219;BMP180;6674;49.152;11.918;2022-10-16T14:26:16;96336.13;;;23.42
13219;BMP180;6674;49.152;11.918;2022-10-16T14:28:44;96331.34;;;23.44
13219;BMP180;6674;49.152;11.918;2022-10-16T14:31:25;96331.88;;;23.64
13219;BMP180;6674;49.152;11.918;2022-10-16T14:33:52;96341.97;;;23.76